Etusivu
METAR-TAF:

Lentoasemat :

Kittilä, Suomi

Kittilän lentoasema

Leveyspiiri: 67-42N, Pituuspiiri: 024-51E, korkeus merenpinnasta: 196 m

Tämänhetkinen sää

Tämä raportti tehtiin 31 minuuttia sitten, kello 05.50 UTC
Tuuli 4 kn koillisesta, vaihdellen pohjoisen/luoteen ja idän/kaakon välillä
Lämpötila 7°C
Kosteus 76%
Ilmanpaine 1024 hPa
Näkyvyys 10 km tai enemmän
ei pilviä alle 1500 m:ssä eikä cumulonimbus-pilviä

METAR: EFKT 240550Z AUTO 04004KT 330V120 CAVOK 07/03 Q1024

Aika: 09:21 (06:21 UTC)

Sääennuste

Tämä raportti tehtiin 21 tuntia ja 43 minuuttia sitten, kello 08.38 UTC
Ennuste voimassa 23. päivästä klo 09 UTC - 23. päivään klo 11 UTC
Tuuli 12 kn lännestä/luoteesta
Näkyvyys: 9000 m
Pilvistä 600 ft:n korkeudessa
heikkoa sadetta
Ajoittain
23. päivästä klo 09 UTC - 23. päivään klo 11 UTC
Näkyvyys: 5000 m
Pilvistä 400 ft:n korkeudessa

TAF: EFKT 230838Z 2309/2311 30012KT 9000 -RA OVC006 TEMPO 2309/2311 5000 OVC004

METAR-TAF

Säähavainnot ja -ennusteet yli 4000 lentoasemalta (METAR- ja TAF-raportit).

Käytössä olevat sääasemat on merkitty karttaan keltaisilla ja punaisilla pisteillä.

Aseta hiiri pisteen päälle nähdäksesi sääaseman nimen.

Klikkaa sitten nähdäksesi säähavainnot ja -ennusteet.

Kartan vaihtaminen: klikkaa mustalla rastilla varustettuja vihreitä pisteitä, niin voit zoomata sisään; viivalla varustettua vihreää pistettä, niin voit zoomata ulos tai vihreitä nuolia, niin pääset viereisille kartoille.


METAR-TAF: